sensor_id;sensor_type;location;lat;lon;timestamp;temperature;humidity
67942;SHT31;54731;42.600;23.476;2023-12-20T00:00:56;0.35;86.62
67942;SHT31;54731;42.600;23.476;2023-12-20T00:03:21;0.32;86.72
67942;SHT31;54731;42.600;23.476;2023-12-20T00:05:47;0.32;86.62
67942;SHT31;54731;42.600;23.476;2023-12-20T00:08:12;0.31;86.52
67942;SHT31;54731;42.600;23.476;2023-12-20T00:10:38;0.32;86.53
67942;SHT31;54731;42.600;23.476;2023-12-20T00:13:03;0.38;86.38
67942;SHT31;54731;42.600;23.476;2023-12-20T00:15:28;0.31;86.27
67942;SHT31;54731;42.600;23.476;2023-12-20T00:17:54;0.31;86.30
67942;SHT31;54731;42.600;23.476;2023-12-20T00:20:19;0.27;86.35
67942;SHT31;54731;42.600;23.476;2023-12-20T00:22:44;0.28;86.27
67942;SHT31;54731;42.600;23.476;2023-12-20T00:25:10;0.38;86.26
67942;SHT31;54731;42.600;23.476;2023-12-20T00:27:35;0.45;86.30
67942;SHT31;54731;42.600;23.476;2023-12-20T00:30:00;0.41;86.21
67942;SHT31;54731;42.600;23.476;2023-12-20T00:32:26;0.34;86.32
67942;SHT31;54731;42.600;23.476;2023-12-20T00:34:51;0.25;86.31
67942;SHT31;54731;42.600;23.476;2023-12-20T00:37:16;0.22;86.33
67942;SHT31;54731;42.600;23.476;2023-12-20T00:39:41;0.19;86.33
67942;SHT31;54731;42.600;23.476;2023-12-20T00:42:07;0.15;86.22
67942;SHT31;54731;42.600;23.476;2023-12-20T00:44:32;0.11;86.20
67942;SHT31;54731;42.600;23.476;2023-12-20T00:46:57;0.10;86.09
67942;SHT31;54731;42.600;23.476;2023-12-20T00:49:23;0.07;86.04
67942;SHT31;54731;42.600;23.476;2023-12-20T00:51:48;0.08;86.10
67942;SHT31;54731;42.600;23.476;2023-12-20T00:54:13;0.10;86.06
67942;SHT31;54731;42.600;23.476;2023-12-20T00:56:38;0.04;86.10
67942;SHT31;54731;42.600;23.476;2023-12-20T00:59:04;0.00;86.04
67942;SHT31;54731;42.600;23.476;2023-12-20T01:01:29;-0.03;86.14
67942;SHT31;54731;42.600;23.476;2023-12-20T01:03:54;-0.05;86.19
67942;SHT31;54731;42.600;23.476;2023-12-20T01:06:20;0.08;86.19
67942;SHT31;54731;42.600;23.476;2023-12-20T01:08:45;0.08;86.01
67942;SHT31;54731;42.600;23.476;2023-12-20T01:11:10;0.07;85.99
67942;SHT31;54731;42.600;23.476;2023-12-20T01:13:35;0.03;86.23
67942;SHT31;54731;42.600;23.476;2023-12-20T01:16:01;-0.06;86.31
67942;SHT31;54731;42.600;23.476;2023-12-20T01:18:26;-0.10;86.52
67942;SHT31;54731;42.600;23.476;2023-12-20T01:20:51;-0.11;86.61
67942;SHT31;54731;42.600;23.476;2023-12-20T01:23:17;-0.14;86.58
67942;SHT31;54731;42.600;23.476;2023-12-20T01:25:42;-0.13;86.67
67942;SHT31;54731;42.600;23.476;2023-12-20T01:28:07;-0.14;86.63
67942;SHT31;54731;42.600;23.476;2023-12-20T01:30:32;-0.11;86.58
67942;SHT31;54731;42.600;23.476;2023-12-20T01:33:00;-0.13;86.56
67942;SHT31;54731;42.600;23.476;2023-12-20T01:35:25;-0.17;86.53
67942;SHT31;54731;42.600;23.476;2023-12-20T01:37:50;-0.23;86.86
67942;SHT31;54731;42.600;23.476;2023-12-20T01:40:15;-0.16;86.90
67942;SHT31;54731;42.600;23.476;2023-12-20T01:42:41;-0.11;86.72
67942;SHT31;54731;42.600;23.476;2023-12-20T01:45:06;-0.10;86.70
67942;SHT31;54731;42.600;23.476;2023-12-20T01:47:32;-0.07;86.67
67942;SHT31;54731;42.600;23.476;2023-12-20T01:49:57;-0.17;86.72
67942;SHT31;54731;42.600;23.476;2023-12-20T01:52:23;-0.14;86.96
67942;SHT31;54731;42.600;23.476;2023-12-20T01:54:49;-0.11;86.83
67942;SHT31;54731;42.600;23.476;2023-12-20T01:57:15;-0.14;86.88
67942;SHT31;54731;42.600;23.476;2023-12-20T01:59:40;-0.17;86.92
67942;SHT31;54731;42.600;23.476;2023-12-20T02:02:07;-0.17;86.97
67942;SHT31;54731;42.600;23.476;2023-12-20T02:04:32;-0.16;86.84
67942;SHT31;54731;42.600;23.476;2023-12-20T02:06:58;-0.21;86.86
67942;SHT31;54731;42.600;23.476;2023-12-20T02:09:24;-0.18;86.86
67942;SHT31;54731;42.600;23.476;2023-12-20T02:11:49;-0.18;86.77
67942;SHT31;54731;42.600;23.476;2023-12-20T02:14:15;-0.14;86.74
67942;SHT31;54731;42.600;23.476;2023-12-20T02:16:40;-0.10;86.74
67942;SHT31;54731;42.600;23.476;2023-12-20T02:19:08;-0.14;86.75
67942;SHT31;54731;42.600;23.476;2023-12-20T02:21:38;-0.23;86.95
67942;SHT31;54731;42.600;23.476;2023-12-20T02:24:03;-0.26;87.02
67942;SHT31;54731;42.600;23.476;2023-12-20T02:26:29;-0.33;87.04
67942;SHT31;54731;42.600;23.476;2023-12-20T02:28:54;-0.28;86.95
67942;SHT31;54731;42.600;23.476;2023-12-20T02:31:23;-0.18;86.59
67942;SHT31;54731;42.600;23.476;2023-12-20T02:33:48;-0.26;86.58
67942;SHT31;54731;42.600;23.476;2023-12-20T02:36:13;-0.34;86.80
67942;SHT31;54731;42.600;23.476;2023-12-20T02:38:39;-0.36;86.94
67942;SHT31;54731;42.600;23.476;2023-12-20T02:41:04;-0.40;86.95
67942;SHT31;54731;42.600;23.476;2023-12-20T02:43:29;-0.41;87.08
67942;SHT31;54731;42.600;23.476;2023-12-20T02:45:56;-0.37;87.08
67942;SHT31;54731;42.600;23.476;2023-12-20T02:48:21;-0.40;87.18
67942;SHT31;54731;42.600;23.476;2023-12-20T02:50:47;-0.38;87.19
67942;SHT31;54731;42.600;23.476;2023-12-20T02:53:12;-0.44;87.24
67942;SHT31;54731;42.600;23.476;2023-12-20T02:55:38;-0.41;87.17
67942;SHT31;54731;42.600;23.476;2023-12-20T02:58:03;-0.41;87.03
67942;SHT31;54731;42.600;23.476;2023-12-20T03:00:28;-0.48;87.01
67942;SHT31;54731;42.600;23.476;2023-12-20T03:02:54;-0.51;87.12
67942;SHT31;54731;42.600;23.476;2023-12-20T03:05:19;-0.54;87.09
67942;SHT31;54731;42.600;23.476;2023-12-20T03:07:44;-0.57;87.06
67942;SHT31;54731;42.600;23.476;2023-12-20T03:10:10;-0.61;86.97
67942;SHT31;54731;42.600;23.476;2023-12-20T03:12:35;-0.64;86.93
67942;SHT31;54731;42.600;23.476;2023-12-20T03:15:00;-0.57;87.11
67942;SHT31;54731;42.600;23.476;2023-12-20T03:17:26;-0.60;87.22
67942;SHT31;54731;42.600;23.476;2023-12-20T03:19:51;-0.53;87.20
67942;SHT31;54731;42.600;23.476;2023-12-20T03:22:16;-0.51;87.20
67942;SHT31;54731;42.600;23.476;2023-12-20T03:24:41;-0.58;87.35
67942;SHT31;54731;42.600;23.476;2023-12-20T03:27:07;-0.58;87.36
67942;SHT31;54731;42.600;23.476;2023-12-20T03:29:32;-0.60;87.33
67942;SHT31;54731;42.600;23.476;2023-12-20T03:31:57;-0.61;87.26
67942;SHT31;54731;42.600;23.476;2023-12-20T03:34:23;-0.62;87.25
67942;SHT31;54731;42.600;23.476;2023-12-20T03:36:48;-0.56;87.27
67942;SHT31;54731;42.600;23.476;2023-12-20T03:39:13;-0.57;87.46
67942;SHT31;54731;42.600;23.476;2023-12-20T03:41:38;-0.60;87.56
67942;SHT31;54731;42.600;23.476;2023-12-20T03:44:04;-0.62;87.68
67942;SHT31;54731;42.600;23.476;2023-12-20T03:46:29;-0.61;87.58
67942;SHT31;54731;42.600;23.476;2023-12-20T03:48:54;-0.70;87.55
67942;SHT31;54731;42.600;23.476;2023-12-20T03:51:20;-0.65;87.80
67942;SHT31;54731;42.600;23.476;2023-12-20T03:53:45;-0.71;87.69
67942;SHT31;54731;42.600;23.476;2023-12-20T03:56:10;-0.75;87.68
67942;SHT31;54731;42.600;23.476;2023-12-20T03:58:35;-0.72;87.66
67942;SHT31;54731;42.600;23.476;2023-12-20T04:01:01;-0.77;87.55
67942;SHT31;54731;42.600;23.476;2023-12-20T04:03:26;-0.77;87.43
67942;SHT31;54731;42.600;23.476;2023-12-20T04:05:51;-0.77;87.32
67942;SHT31;54731;42.600;23.476;2023-12-20T04:08:17;-0.71;87.33
67942;SHT31;54731;42.600;23.476;2023-12-20T04:10:42;-0.72;87.27
67942;SHT31;54731;42.600;23.476;2023-12-20T04:13:07;-0.78;87.27
67942;SHT31;54731;42.600;23.476;2023-12-20T04:15:33;-0.71;87.43
67942;SHT31;54731;42.600;23.476;2023-12-20T04:17:58;-0.70;87.32
67942;SHT31;54731;42.600;23.476;2023-12-20T04:20:23;-0.71;87.46
67942;SHT31;54731;42.600;23.476;2023-12-20T04:22:48;-0.75;87.60
67942;SHT31;54731;42.600;23.476;2023-12-20T04:25:14;-0.74;87.74
67942;SHT31;54731;42.600;23.476;2023-12-20T04:27:39;-0.80;87.81
67942;SHT31;54731;42.600;23.476;2023-12-20T04:30:05;-0.78;87.89
67942;SHT31;54731;42.600;23.476;2023-12-20T04:32:30;-0.82;88.04
67942;SHT31;54731;42.600;23.476;2023-12-20T04:34:56;-0.85;87.99
67942;SHT31;54731;42.600;23.476;2023-12-20T04:37:21;-0.80;87.92
67942;SHT31;54731;42.600;23.476;2023-12-20T04:39:46;-0.80;87.68
67942;SHT31;54731;42.600;23.476;2023-12-20T04:42:11;-0.84;87.77
67942;SHT31;54731;42.600;23.476;2023-12-20T04:44:37;-0.92;87.90
67942;SHT31;54731;42.600;23.476;2023-12-20T04:47:02;-0.93;88.12
67942;SHT31;54731;42.600;23.476;2023-12-20T04:49:27;-0.88;88.17
67942;SHT31;54731;42.600;23.476;2023-12-20T04:51:53;-0.85;88.22
67942;SHT31;54731;42.600;23.476;2023-12-20T04:54:18;-0.93;88.14
67942;SHT31;54731;42.600;23.476;2023-12-20T04:56:43;-0.93;88.21
67942;SHT31;54731;42.600;23.476;2023-12-20T04:59:08;-0.98;88.11
67942;SHT31;54731;42.600;23.476;2023-12-20T05:01:34;-0.93;88.16
67942;SHT31;54731;42.600;23.476;2023-12-20T05:03:59;-0.92;88.12
67942;SHT31;54731;42.600;23.476;2023-12-20T05:06:24;-0.92;87.98
67942;SHT31;54731;42.600;23.476;2023-12-20T05:08:50;-0.99;88.02
67942;SHT31;54731;42.600;23.476;2023-12-20T05:11:15;-0.92;88.13
67942;SHT31;54731;42.600;23.476;2023-12-20T05:13:40;-0.88;88.52
67942;SHT31;54731;42.600;23.476;2023-12-20T05:16:06;-0.85;88.41
67942;SHT31;54731;42.600;23.476;2023-12-20T05:18:31;-0.89;88.39
67942;SHT31;54731;42.600;23.476;2023-12-20T05:20:56;-0.92;88.33
67942;SHT31;54731;42.600;23.476;2023-12-20T05:23:22;-0.71;88.09
67942;SHT31;54731;42.600;23.476;2023-12-20T05:25:47;-0.78;88.15
67942;SHT31;54731;42.600;23.476;2023-12-20T05:28:12;-0.81;88.43
67942;SHT31;54731;42.600;23.476;2023-12-20T05:30:38;-0.81;88.36
67942;SHT31;54731;42.600;23.476;2023-12-20T05:33:03;-0.87;88.41
67942;SHT31;54731;42.600;23.476;2023-12-20T05:35:28;-0.88;88.20
67942;SHT31;54731;42.600;23.476;2023-12-20T05:37:54;-0.89;88.31
67942;SHT31;54731;42.600;23.476;2023-12-20T05:40:19;-0.92;88.27
67942;SHT31;54731;42.600;23.476;2023-12-20T05:42:44;-0.91;88.18
67942;SHT31;54731;42.600;23.476;2023-12-20T05:45:09;-0.82;88.06
67942;SHT31;54731;42.600;23.476;2023-12-20T05:47:35;-0.82;87.90
67942;SHT31;54731;42.600;23.476;2023-12-20T05:50:00;-0.91;87.63
67942;SHT31;54731;42.600;23.476;2023-12-20T05:52:25;-0.91;87.80
67942;SHT31;54731;42.600;23.476;2023-12-20T05:54:51;-0.89;87.67
67942;SHT31;54731;42.600;23.476;2023-12-20T05:57:16;-0.92;87.75
67942;SHT31;54731;42.600;23.476;2023-12-20T05:59:41;-0.93;87.59
67942;SHT31;54731;42.600;23.476;2023-12-20T06:02:07;-0.92;87.49
67942;SHT31;54731;42.600;23.476;2023-12-20T06:04:32;-0.93;87.58
67942;SHT31;54731;42.600;23.476;2023-12-20T06:06:57;-0.98;87.59
67942;SHT31;54731;42.600;23.476;2023-12-20T06:09:23;-0.93;87.57
67942;SHT31;54731;42.600;23.476;2023-12-20T06:11:49;-0.98;87.56
67942;SHT31;54731;42.600;23.476;2023-12-20T06:14:14;-1.01;87.74
67942;SHT31;54731;42.600;23.476;2023-12-20T06:16:40;-1.03;87.75
67942;SHT31;54731;42.600;23.476;2023-12-20T06:19:05;-1.03;87.75
67942;SHT31;54731;42.600;23.476;2023-12-20T06:21:30;-1.05;87.74
67942;SHT31;54731;42.600;23.476;2023-12-20T06:23:55;-1.08;87.56
67942;SHT31;54731;42.600;23.476;2023-12-20T06:26:21;-1.11;87.67
67942;SHT31;54731;42.600;23.476;2023-12-20T06:28:46;-1.08;87.66
67942;SHT31;54731;42.600;23.476;2023-12-20T06:31:11;-1.06;87.56
67942;SHT31;54731;42.600;23.476;2023-12-20T06:33:38;-1.05;87.49
67942;SHT31;54731;42.600;23.476;2023-12-20T06:36:04;-1.08;87.48
67942;SHT31;54731;42.600;23.476;2023-12-20T06:38:29;-1.08;87.62
67942;SHT31;54731;42.600;23.476;2023-12-20T06:40:54;-1.11;87.61
67942;SHT31;54731;42.600;23.476;2023-12-20T06:43:20;-1.06;87.86
67942;SHT31;54731;42.600;23.476;2023-12-20T06:45:45;-1.06;87.92
67942;SHT31;54731;42.600;23.476;2023-12-20T06:48:10;-0.92;88.06
67942;SHT31;54731;42.600;23.476;2023-12-20T06:50:35;-0.91;87.97
67942;SHT31;54731;42.600;23.476;2023-12-20T06:53:01;-0.91;88.02
67942;SHT31;54731;42.600;23.476;2023-12-20T06:55:26;-0.96;87.88
67942;SHT31;54731;42.600;23.476;2023-12-20T06:57:51;-0.96;87.85
67942;SHT31;54731;42.600;23.476;2023-12-20T07:00:17;-0.91;87.58
67942;SHT31;54731;42.600;23.476;2023-12-20T07:02:43;-0.96;87.53
67942;SHT31;54731;42.600;23.476;2023-12-20T07:05:09;-0.98;87.65
67942;SHT31;54731;42.600;23.476;2023-12-20T07:07:34;-0.98;87.72
67942;SHT31;54731;42.600;23.476;2023-12-20T07:09:59;-0.93;87.88
67942;SHT31;54731;42.600;23.476;2023-12-20T07:12:25;-0.93;87.96
67942;SHT31;54731;42.600;23.476;2023-12-20T07:14:50;-0.89;87.96
67942;SHT31;54731;42.600;23.476;2023-12-20T07:17:15;-0.92;87.81
67942;SHT31;54731;42.600;23.476;2023-12-20T07:19:41;-0.88;87.69
67942;SHT31;54731;42.600;23.476;2023-12-20T07:22:07;-0.88;87.73
67942;SHT31;54731;42.600;23.476;2023-12-20T07:24:33;-0.78;87.82
67942;SHT31;54731;42.600;23.476;2023-12-20T07:27:01;-0.71;87.70
67942;SHT31;54731;42.600;23.476;2023-12-20T07:29:27;-0.75;87.76
67942;SHT31;54731;42.600;23.476;2023-12-20T07:31:55;-0.72;87.84
67942;SHT31;54731;42.600;23.476;2023-12-20T07:34:20;-0.77;87.78
67942;SHT31;54731;42.600;23.476;2023-12-20T07:36:46;-0.74;87.81
67942;SHT31;54731;42.600;23.476;2023-12-20T07:39:11;-0.75;87.92
67942;SHT31;54731;42.600;23.476;2023-12-20T07:41:36;-0.77;87.87
67942;SHT31;54731;42.600;23.476;2023-12-20T07:44:02;-0.72;87.88
67942;SHT31;54731;42.600;23.476;2023-12-20T07:46:27;-0.75;87.77
67942;SHT31;54731;42.600;23.476;2023-12-20T07:48:52;-0.80;87.82
67942;SHT31;54731;42.600;23.476;2023-12-20T07:51:18;-0.78;87.89
67942;SHT31;54731;42.600;23.476;2023-12-20T07:53:43;-0.72;87.83
67942;SHT31;54731;42.600;23.476;2023-12-20T07:56:18;-0.74;87.66
67942;SHT31;54731;42.600;23.476;2023-12-20T07:58:45;-0.71;87.65
67942;SHT31;54731;42.600;23.476;2023-12-20T08:01:11;-0.61;87.61
67942;SHT31;54731;42.600;23.476;2023-12-20T08:03:37;-0.61;87.43
67942;SHT31;54731;42.600;23.476;2023-12-20T08:06:02;-0.51;87.42
67942;SHT31;54731;42.600;23.476;2023-12-20T08:08:28;-0.45;87.46
67942;SHT31;54731;42.600;23.476;2023-12-20T08:10:53;-0.30;87.51
67942;SHT31;54731;42.600;23.476;2023-12-20T08:13:18;-0.16;87.36
67942;SHT31;54731;42.600;23.476;2023-12-20T08:15:44;-0.09;87.42
67942;SHT31;54731;42.600;23.476;2023-12-20T08:18:09;-0.02;87.43
67942;SHT31;54731;42.600;23.476;2023-12-20T08:20:34;0.08;87.54
67942;SHT31;54731;42.600;23.476;2023-12-20T08:23:00;0.14;87.56
67942;SHT31;54731;42.600;23.476;2023-12-20T08:25:25;0.25;87.87
67942;SHT31;54731;42.600;23.476;2023-12-20T08:27:50;0.31;87.91
67942;SHT31;54731;42.600;23.476;2023-12-20T08:30:15;0.32;87.82
67942;SHT31;54731;42.600;23.476;2023-12-20T08:32:41;0.19;87.57
67942;SHT31;54731;42.600;23.476;2023-12-20T08:35:06;-0.05;87.44
67942;SHT31;54731;42.600;23.476;2023-12-20T08:37:31;-0.05;87.30
67942;SHT31;54731;42.600;23.476;2023-12-20T08:39:57;0.05;87.22
67942;SHT31;54731;42.600;23.476;2023-12-20T08:42:22;-0.06;87.04
67942;SHT31;54731;42.600;23.476;2023-12-20T08:44:47;-0.13;87.05
67942;SHT31;54731;42.600;23.476;2023-12-20T08:47:13;-0.05;87.22
67942;SHT31;54731;42.600;23.476;2023-12-20T08:49:38;0.11;87.18
67942;SHT31;54731;42.600;23.476;2023-12-20T08:52:04;0.27;87.07
67942;SHT31;54731;42.600;23.476;2023-12-20T08:54:30;0.40;87.01
67942;SHT31;54731;42.600;23.476;2023-12-20T08:56:55;0.44;87.17
67942;SHT31;54731;42.600;23.476;2023-12-20T08:59:20;0.55;87.15
67942;SHT31;54731;42.600;23.476;2023-12-20T09:01:45;0.64;87.23
67942;SHT31;54731;42.600;23.476;2023-12-20T09:04:11;0.64;87.11
67942;SHT31;54731;42.600;23.476;2023-12-20T09:06:36;0.52;86.87
67942;SHT31;54731;42.600;23.476;2023-12-20T09:09:01;0.37;86.45
67942;SHT31;54731;42.600;23.476;2023-12-20T09:11:27;0.44;86.65
67942;SHT31;54731;42.600;23.476;2023-12-20T09:13:52;0.42;86.52
67942;SHT31;54731;42.600;23.476;2023-12-20T09:16:17;0.42;86.48
67942;SHT31;54731;42.600;23.476;2023-12-20T09:18:43;0.54;86.45
67942;SHT31;54731;42.600;23.476;2023-12-20T09:21:08;0.68;86.34
67942;SHT31;54731;42.600;23.476;2023-12-20T09:23:33;0.82;86.21
67942;SHT31;54731;42.600;23.476;2023-12-20T09:25:59;0.65;85.87
67942;SHT31;54731;42.600;23.476;2023-12-20T09:28:24;0.76;86.00
67942;SHT31;54731;42.600;23.476;2023-12-20T09:30:49;0.96;85.76
67942;SHT31;54731;42.600;23.476;2023-12-20T09:33:15;0.80;85.13
67942;SHT31;54731;42.600;23.476;2023-12-20T09:35:40;0.97;85.32
67942;SHT31;54731;42.600;23.476;2023-12-20T09:38:05;1.06;84.91
67942;SHT31;54731;42.600;23.476;2023-12-20T09:40:32;1.20;84.80
67942;SHT31;54731;42.600;23.476;2023-12-20T09:43:01;1.41;84.64
67942;SHT31;54731;42.600;23.476;2023-12-20T09:45:28;1.64;84.41
67942;SHT31;54731;42.600;23.476;2023-12-20T09:47:56;1.85;84.26
67942;SHT31;54731;42.600;23.476;2023-12-20T09:50:23;1.99;83.91
67942;SHT31;54731;42.600;23.476;2023-12-20T09:52:52;2.24;83.85
67942;SHT31;54731;42.600;23.476;2023-12-20T09:55:19;2.39;83.38
67942;SHT31;54731;42.600;23.476;2023-12-20T09:57:45;2.42;82.64
67942;SHT31;54731;42.600;23.476;2023-12-20T10:00:11;2.45;82.30
67942;SHT31;54731;42.600;23.476;2023-12-20T10:02:38;2.67;82.35
67942;SHT31;54731;42.600;23.476;2023-12-20T10:05:08;2.76;81.62
67942;SHT31;54731;42.600;23.476;2023-12-20T10:07:34;2.79;81.79
67942;SHT31;54731;42.600;23.476;2023-12-20T10:10:00;2.91;81.35
67942;SHT31;54731;42.600;23.476;2023-12-20T10:12:26;2.91;81.15
67942;SHT31;54731;42.600;23.476;2023-12-20T10:14:52;2.89;80.83
67942;SHT31;54731;42.600;23.476;2023-12-20T10:17:17;2.66;81.61
67942;SHT31;54731;42.600;23.476;2023-12-20T10:19:42;2.52;81.70
67942;SHT31;54731;42.600;23.476;2023-12-20T10:22:08;2.54;81.33
67942;SHT31;54731;42.600;23.476;2023-12-20T10:24:33;2.46;81.31
67942;SHT31;54731;42.600;23.476;2023-12-20T10:27:03;2.11;81.83
67942;SHT31;54731;42.600;23.476;2023-12-20T10:29:28;2.18;81.78
67942;SHT31;54731;42.600;23.476;2023-12-20T10:31:56;2.28;81.91
67942;SHT31;54731;42.600;23.476;2023-12-20T10:34:21;2.39;81.56
67942;SHT31;54731;42.600;23.476;2023-12-20T10:36:47;2.42;81.67
67942;SHT31;54731;42.600;23.476;2023-12-20T10:39:14;2.63;81.56
67942;SHT31;54731;42.600;23.476;2023-12-20T10:41:40;2.81;81.22
67942;SHT31;54731;42.600;23.476;2023-12-20T10:44:08;2.91;80.71
67942;SHT31;54731;42.600;23.476;2023-12-20T10:46:35;3.04;80.47
67942;SHT31;54731;42.600;23.476;2023-12-20T10:49:02;2.83;79.93
67942;SHT31;54731;42.600;23.476;2023-12-20T10:51:28;2.75;80.40
67942;SHT31;54731;42.600;23.476;2023-12-20T10:53:54;2.87;80.85
67942;SHT31;54731;42.600;23.476;2023-12-20T10:56:20;3.00;80.36
67942;SHT31;54731;42.600;23.476;2023-12-20T10:58:45;3.20;79.84
67942;SHT31;54731;42.600;23.476;2023-12-20T11:01:13;3.30;79.37
67942;SHT31;54731;42.600;23.476;2023-12-20T11:04:01;3.44;79.23
67942;SHT31;54731;42.600;23.476;2023-12-20T11:06:33;3.54;78.84
67942;SHT31;54731;42.600;23.476;2023-12-20T11:12:18;3.72;78.15
67942;SHT31;54731;42.600;23.476;2023-12-20T11:14:53;3.79;77.95
67942;SHT31;54731;42.600;23.476;2023-12-20T11:17:19;3.97;77.43
67942;SHT31;54731;42.600;23.476;2023-12-20T11:22:22;4.20;77.33
67942;SHT31;54731;42.600;23.476;2023-12-20T11:24:48;4.30;76.75
67942;SHT31;54731;42.600;23.476;2023-12-20T11:27:14;4.26;76.58
67942;SHT31;54731;42.600;23.476;2023-12-20T11:29:40;4.13;76.39
67942;SHT31;54731;42.600;23.476;2023-12-20T11:34:50;4.17;76.64
67942;SHT31;54731;42.600;23.476;2023-12-20T11:37:16;4.36;76.17
67942;SHT31;54731;42.600;23.476;2023-12-20T11:39:43;4.21;75.73
67942;SHT31;54731;42.600;23.476;2023-12-20T11:42:09;4.46;75.97
67942;SHT31;54731;42.600;23.476;2023-12-20T11:44:36;4.58;75.15
67942;SHT31;54731;42.600;23.476;2023-12-20T11:47:01;4.70;74.77
67942;SHT31;54731;42.600;23.476;2023-12-20T11:49:27;4.85;74.46
67942;SHT31;54731;42.600;23.476;2023-12-20T11:51:52;5.07;73.85
67942;SHT31;54731;42.600;23.476;2023-12-20T11:54:18;5.16;73.23
67942;SHT31;54731;42.600;23.476;2023-12-20T11:56:43;5.22;73.18
67942;SHT31;54731;42.600;23.476;2023-12-20T11:59:09;5.28;72.64
67942;SHT31;54731;42.600;23.476;2023-12-20T12:01:34;5.42;72.38
67942;SHT31;54731;42.600;23.476;2023-12-20T12:04:06;5.50;72.23
67942;SHT31;54731;42.600;23.476;2023-12-20T12:06:32;5.45;72.62
67942;SHT31;54731;42.600;23.476;2023-12-20T12:08:57;5.49;71.80
67942;SHT31;54731;42.600;23.476;2023-12-20T12:11:23;5.62;71.69
67942;SHT31;54731;42.600;23.476;2023-12-20T12:13:48;5.73;71.26
67942;SHT31;54731;42.600;23.476;2023-12-20T12:16:17;5.81;71.20
67942;SHT31;54731;42.600;23.476;2023-12-20T12:18:43;6.01;70.71
67942;SHT31;54731;42.600;23.476;2023-12-20T12:21:08;6.28;69.48
67942;SHT31;54731;42.600;23.476;2023-12-20T12:23:33;6.48;68.18
67942;SHT31;54731;42.600;23.476;2023-12-20T12:25:59;6.69;66.62
67942;SHT31;54731;42.600;23.476;2023-12-20T12:28:27;6.61;66.53
67942;SHT31;54731;42.600;23.476;2023-12-20T12:30:57;6.76;65.22
67942;SHT31;54731;42.600;23.476;2023-12-20T12:33:22;6.73;66.20
67942;SHT31;54731;42.600;23.476;2023-12-20T12:35:48;6.68;65.89
67942;SHT31;54731;42.600;23.476;2023-12-20T12:38:13;6.62;66.80
67942;SHT31;54731;42.600;23.476;2023-12-20T12:40:38;6.32;67.78
67942;SHT31;54731;42.600;23.476;2023-12-20T12:43:03;6.00;69.39
67942;SHT31;54731;42.600;23.476;2023-12-20T12:45:29;5.96;69.87
67942;SHT31;54731;42.600;23.476;2023-12-20T12:47:54;6.22;69.14
67942;SHT31;54731;42.600;23.476;2023-12-20T12:50:19;6.16;69.04
67942;SHT31;54731;42.600;23.476;2023-12-20T12:52:45;5.90;69.98
67942;SHT31;54731;42.600;23.476;2023-12-20T12:55:10;5.85;70.31
67942;SHT31;54731;42.600;23.476;2023-12-20T12:57:35;5.73;70.42
67942;SHT31;54731;42.600;23.476;2023-12-20T13:00:01;5.79;70.41
67942;SHT31;54731;42.600;23.476;2023-12-20T13:02:26;5.80;70.04
67942;SHT31;54731;42.600;23.476;2023-12-20T13:05:07;5.57;70.94
67942;SHT31;54731;42.600;23.476;2023-12-20T13:07:33;5.60;71.14
67942;SHT31;54731;42.600;23.476;2023-12-20T13:09:59;5.59;70.86
67942;SHT31;54731;42.600;23.476;2023-12-20T13:12:24;5.46;71.25
67942;SHT31;54731;42.600;23.476;2023-12-20T13:14:49;5.39;71.61
67942;SHT31;54731;42.600;23.476;2023-12-20T13:17:15;5.38;71.85
67942;SHT31;54731;42.600;23.476;2023-12-20T13:19:40;5.34;72.16
67942;SHT31;54731;42.600;23.476;2023-12-20T13:22:05;5.26;72.39
67942;SHT31;54731;42.600;23.476;2023-12-20T13:24:31;5.16;72.63
67942;SHT31;54731;42.600;23.476;2023-12-20T13:26:56;5.14;72.55
67942;SHT31;54731;42.600;23.476;2023-12-20T13:29:22;4.99;73.33
67942;SHT31;54731;42.600;23.476;2023-12-20T13:31:47;4.75;74.34
67942;SHT31;54731;42.600;23.476;2023-12-20T13:34:12;4.88;73.86
67942;SHT31;54731;42.600;23.476;2023-12-20T13:36:38;4.92;73.52
67942;SHT31;54731;42.600;23.476;2023-12-20T13:39:03;4.84;73.82
67942;SHT31;54731;42.600;23.476;2023-12-20T13:41:29;4.75;73.83
67942;SHT31;54731;42.600;23.476;2023-12-20T13:43:54;4.68;74.09
67942;SHT31;54731;42.600;23.476;2023-12-20T13:46:19;4.71;73.64
67942;SHT31;54731;42.600;23.476;2023-12-20T13:48:45;4.64;73.11
67942;SHT31;54731;42.600;23.476;2023-12-20T13:51:10;4.60;72.97
67942;SHT31;54731;42.600;23.476;2023-12-20T13:53:35;4.70;72.43
67942;SHT31;54731;42.600;23.476;2023-12-20T13:56:00;4.74;72.08
67942;SHT31;54731;42.600;23.476;2023-12-20T13:58:26;4.68;72.24
67942;SHT31;54731;42.600;23.476;2023-12-20T14:00:51;4.74;72.45
67942;SHT31;54731;42.600;23.476;2023-12-20T14:03:17;4.78;71.04
67942;SHT31;54731;42.600;23.476;2023-12-20T14:05:42;4.91;69.17
67942;SHT31;54731;42.600;23.476;2023-12-20T14:08:07;4.96;69.18
67942;SHT31;54731;42.600;23.476;2023-12-20T14:10:32;4.68;72.04
67942;SHT31;54731;42.600;23.476;2023-12-20T14:12:58;4.60;73.07
67942;SHT31;54731;42.600;23.476;2023-12-20T14:15:23;4.58;73.15
67942;SHT31;54731;42.600;23.476;2023-12-20T14:17:48;4.54;73.61
67942;SHT31;54731;42.600;23.476;2023-12-20T14:20:14;4.41;74.00
67942;SHT31;54731;42.600;23.476;2023-12-20T14:22:39;4.24;74.61
67942;SHT31;54731;42.600;23.476;2023-12-20T14:25:05;4.19;75.00
67942;SHT31;54731;42.600;23.476;2023-12-20T14:27:30;4.17;75.21
67942;SHT31;54731;42.600;23.476;2023-12-20T14:29:56;4.14;75.32
67942;SHT31;54731;42.600;23.476;2023-12-20T14:32:21;4.09;75.58
67942;SHT31;54731;42.600;23.476;2023-12-20T14:34:47;4.03;75.51
67942;SHT31;54731;42.600;23.476;2023-12-20T14:37:12;4.10;75.14
67942;SHT31;54731;42.600;23.476;2023-12-20T14:39:38;4.10;74.66
67942;SHT31;54731;42.600;23.476;2023-12-20T14:42:03;3.99;74.70
67942;SHT31;54731;42.600;23.476;2023-12-20T14:44:28;3.89;75.07
67942;SHT31;54731;42.600;23.476;2023-12-20T14:46:54;3.82;75.46
67942;SHT31;54731;42.600;23.476;2023-12-20T14:49:19;3.78;75.66
67942;SHT31;54731;42.600;23.476;2023-12-20T14:51:44;3.69;75.81
67942;SHT31;54731;42.600;23.476;2023-12-20T14:54:10;3.54;76.34
67942;SHT31;54731;42.600;23.476;2023-12-20T14:56:35;3.52;76.56
67942;SHT31;54731;42.600;23.476;2023-12-20T14:59:00;3.52;76.44
67942;SHT31;54731;42.600;23.476;2023-12-20T15:01:26;3.46;76.64
67942;SHT31;54731;42.600;23.476;2023-12-20T15:03:51;3.42;76.85
67942;SHT31;54731;42.600;23.476;2023-12-20T15:06:16;3.39;77.04
67942;SHT31;54731;42.600;23.476;2023-12-20T15:08:42;3.36;77.00
67942;SHT31;54731;42.600;23.476;2023-12-20T15:11:07;3.30;77.29
67942;SHT31;54731;42.600;23.476;2023-12-20T15:13:32;3.30;77.39
67942;SHT31;54731;42.600;23.476;2023-12-20T15:15:58;3.25;77.48
67942;SHT31;54731;42.600;23.476;2023-12-20T15:18:23;3.20;77.69
67942;SHT31;54731;42.600;23.476;2023-12-20T15:20:48;3.18;77.94